sensor_id;sensor_type;location;lat;lon;timestamp;pressure;altitude;pressure_sealevel;temperature;humidity
32033;BME280;31720;52.638;9.216;2023-01-28T00:01:36;102632.19;;;1.29;100.00
32033;BME280;31720;52.638;9.216;2023-01-28T00:04:39;102629.53;;;1.24;100.00
32033;BME280;31720;52.638;9.216;2023-01-28T00:07:40;102628.69;;;1.26;100.00
32033;BME280;31720;52.638;9.216;2023-01-28T00:10:42;102626.06;;;1.25;100.00
32033;BME280;31720;52.638;9.216;2023-01-28T00:13:43;102628.59;;;1.22;100.00
32033;BME280;31720;52.638;9.216;2023-01-28T00:16:44;102626.00;;;1.22;100.00
32033;BME280;31720;52.638;9.216;2023-01-28T00:19:47;102628.66;;;1.25;100.00
32033;BME280;31720;52.638;9.216;2023-01-28T00:22:49;102628.69;;;1.26;100.00
32033;BME280;31720;52.638;9.216;2023-01-28T00:25:50;102634.78;;;1.29;100.00
32033;BME280;31720;52.638;9.216;2023-01-28T00:28:52;102620.81;;;1.20;100.00
32033;BME280;31720;52.638;9.216;2023-01-28T00:31:53;102619.97;;;1.21;100.00
32033;BME280;31720;52.638;9.216;2023-01-28T00:34:56;102632.09;;;1.24;100.00
32033;BME280;31720;52.638;9.216;2023-01-28T00:37:57;102620.91;;;1.25;100.00
32033;BME280;31720;52.638;9.216;2023-01-28T00:41:06;102630.47;;;1.29;100.00
32033;BME280;31720;52.638;9.216;2023-01-28T00:44:07;102625.28;;;1.31;100.00
32033;BME280;31720;52.638;9.216;2023-01-28T00:47:08;102629.63;;;1.32;100.00
32033;BME280;31720;52.638;9.216;2023-01-28T00:50:11;102621.84;;;1.30;100.00
32033;BME280;31720;52.638;9.216;2023-01-28T00:53:13;102617.38;;;1.21;100.00
32033;BME280;31720;52.638;9.216;2023-01-28T00:56:15;102614.84;;;1.23;100.00
32033;BME280;31720;52.638;9.216;2023-01-28T00:59:17;102614.91;;;1.27;100.00
32033;BME280;31720;52.638;9.216;2023-01-28T01:02:18;102623.53;;;1.28;100.00
32033;BME280;31720;52.638;9.216;2023-01-28T01:05:21;102628.66;;;1.25;100.00
32033;BME280;31720;52.638;9.216;2023-01-28T01:08:22;102627.84;;;1.27;100.00
32033;BME280;31720;52.638;9.216;2023-01-28T01:11:34;102628.66;;;1.23;100.00
32033;BME280;31720;52.638;9.216;2023-01-28T01:14:35;102622.69;;;1.27;100.00
32033;BME280;31720;52.638;9.216;2023-01-28T01:17:36;102621.81;;;1.29;100.00
32033;BME280;31720;52.638;9.216;2023-01-28T01:20:40;102619.16;;;1.24;100.00
32033;BME280;31720;52.638;9.216;2023-01-28T01:23:45;102623.41;;;1.20;100.00
32033;BME280;31720;52.638;9.216;2023-01-28T01:26:46;102625.88;;;1.13;100.00
32033;BME280;31720;52.638;9.216;2023-01-28T01:29:48;102622.53;;;1.18;100.00
32033;BME280;31720;52.638;9.216;2023-01-28T01:32:50;102625.94;;;1.17;100.00
32033;BME280;31720;52.638;9.216;2023-01-28T01:35:53;102618.16;;;1.14;100.00
32033;BME280;31720;52.638;9.216;2023-01-28T01:38:54;102629.38;;;1.16;100.00
32033;BME280;31720;52.638;9.216;2023-01-28T01:45:00;102624.34;;;1.24;100.00
32033;BME280;31720;52.638;9.216;2023-01-28T01:48:04;102633.03;;;1.27;100.00
32033;BME280;31720;52.638;9.216;2023-01-28T01:51:14;102628.66;;;1.23;100.00
32033;BME280;31720;52.638;9.216;2023-01-28T01:54:19;102629.47;;;1.21;100.00
32033;BME280;31720;52.638;9.216;2023-01-28T01:57:26;102637.31;;;1.25;100.00
32033;BME280;31720;52.638;9.216;2023-01-28T02:00:29;102635.63;;;1.27;100.00
32033;BME280;31720;52.638;9.216;2023-01-28T02:03:37;102633.84;;;1.26;100.00
32033;BME280;31720;52.638;9.216;2023-01-28T02:06:43;102627.78;;;1.24;100.00
32033;BME280;31720;52.638;9.216;2023-01-28T02:09:45;102642.50;;;1.27;100.00
32033;BME280;31720;52.638;9.216;2023-01-28T02:12:50;102635.63;;;1.29;100.00
32033;BME280;31720;52.638;9.216;2023-01-28T02:15:54;102636.41;;;1.23;100.00
32033;BME280;31720;52.638;9.216;2023-01-28T02:18:56;102635.47;;;1.18;100.00
32033;BME280;31720;52.638;9.216;2023-01-28T02:22:09;102641.53;;;1.20;100.00
32033;BME280;31720;52.638;9.216;2023-01-28T02:28:59;102634.56;;;1.18;100.00
32033;BME280;31720;52.638;9.216;2023-01-28T02:32:09;102630.25;;;1.17;100.00
32033;BME280;31720;52.638;9.216;2023-01-28T02:35:16;102621.56;;;1.13;100.00
32033;BME280;31720;52.638;9.216;2023-01-28T02:38:22;102631.97;;;1.16;100.00
32033;BME280;31720;52.638;9.216;2023-01-28T02:41:28;102631.16;;;1.19;100.00
32033;BME280;31720;52.638;9.216;2023-01-28T02:44:33;102626.88;;;1.21;100.00
32033;BME280;31720;52.638;9.216;2023-01-28T02:47:34;102625.16;;;1.21;100.00
32033;BME280;31720;52.638;9.216;2023-01-28T02:50:59;102620.00;;;1.23;100.00
32033;BME280;31720;52.638;9.216;2023-01-28T02:54:08;102619.88;;;1.14;100.00
32033;BME280;31720;52.638;9.216;2023-01-28T02:57:22;102614.72;;;1.17;100.00
32033;BME280;31720;52.638;9.216;2023-01-28T03:00:29;102619.09;;;1.19;100.00
32033;BME280;31720;52.638;9.216;2023-01-28T03:03:41;102619.97;;;1.21;100.00
32033;BME280;31720;52.638;9.216;2023-01-28T03:06:47;102617.34;;;1.18;100.00
32033;BME280;31720;52.638;9.216;2023-01-28T03:09:51;102610.41;;;1.17;100.00
32033;BME280;31720;52.638;9.216;2023-01-28T03:12:53;102611.25;;;1.15;100.00
32033;BME280;31720;52.638;9.216;2023-01-28T03:16:15;102612.03;;;1.09;100.00
32033;BME280;31720;52.638;9.216;2023-01-28T03:19:35;102605.00;;;1.02;100.00
32033;BME280;31720;52.638;9.216;2023-01-28T03:22:56;102609.31;;;1.03;100.00
32033;BME280;31720;52.638;9.216;2023-01-28T03:26:20;102612.81;;;1.05;100.00
32033;BME280;31720;52.638;9.216;2023-01-28T03:29:42;102606.66;;;0.98;100.00
32033;BME280;31720;52.638;9.216;2023-01-28T03:33:05;102611.06;;;1.04;100.00
32033;BME280;31720;52.638;9.216;2023-01-28T03:36:25;102612.72;;;0.99;100.00
32033;BME280;31720;52.638;9.216;2023-01-28T03:39:44;102617.00;;;0.97;100.00
32033;BME280;31720;52.638;9.216;2023-01-28T03:42:46;102616.16;;;0.99;100.00
32033;BME280;31720;52.638;9.216;2023-01-28T03:45:47;102619.59;;;0.98;100.00
32033;BME280;31720;52.638;9.216;2023-01-28T03:48:51;102619.66;;;1.01;100.00
32033;BME280;31720;52.638;9.216;2023-01-28T03:51:53;102626.50;;;0.98;100.00
32033;BME280;31720;52.638;9.216;2023-01-28T03:54:55;102626.50;;;0.96;100.00
32033;BME280;31720;52.638;9.216;2023-01-28T03:57:56;102618.75;;;0.98;100.00
32033;BME280;31720;52.638;9.216;2023-01-28T04:00:58;102624.78;;;0.98;100.00
32033;BME280;31720;52.638;9.216;2023-01-28T04:04:00;102624.78;;;0.97;100.00
32033;BME280;31720;52.638;9.216;2023-01-28T04:07:02;102635.09;;;0.95;100.00
32033;BME280;31720;52.638;9.216;2023-01-28T04:10:04;102637.59;;;0.91;100.00
32033;BME280;31720;52.638;9.216;2023-01-28T04:13:07;102648.06;;;0.97;100.00
32033;BME280;31720;52.638;9.216;2023-01-28T04:16:09;102654.97;;;0.98;100.00
32033;BME280;31720;52.638;9.216;2023-01-28T04:19:11;102657.44;;;0.90;100.00
32033;BME280;31720;52.638;9.216;2023-01-28T04:22:13;102650.50;;;0.88;100.00
32033;BME280;31720;52.638;9.216;2023-01-28T04:25:15;102647.94;;;0.91;100.00
32033;BME280;31720;52.638;9.216;2023-01-28T04:28:16;102654.03;;;0.91;100.00
32033;BME280;31720;52.638;9.216;2023-01-28T04:31:17;102656.69;;;0.96;100.00
32033;BME280;31720;52.638;9.216;2023-01-28T04:34:20;102657.56;;;0.98;100.00
32033;BME280;31720;52.638;9.216;2023-01-28T04:37:21;102648.09;;;0.98;100.00
32033;BME280;31720;52.638;9.216;2023-01-28T04:40:23;102648.91;;;0.96;100.00
32033;BME280;31720;52.638;9.216;2023-01-28T04:43:24;102633.38;;;0.96;100.00
32033;BME280;31720;52.638;9.216;2023-01-28T04:46:25;102638.56;;;0.97;100.00
32033;BME280;31720;52.638;9.216;2023-01-28T04:49:28;102652.31;;;0.95;100.00
32033;BME280;31720;52.638;9.216;2023-01-28T04:52:29;102644.59;;;0.96;100.00
32033;BME280;31720;52.638;9.216;2023-01-28T04:55:31;102642.03;;;0.98;100.00
32033;BME280;31720;52.638;9.216;2023-01-28T04:58:32;102647.22;;;0.98;100.00
32033;BME280;31720;52.638;9.216;2023-01-28T05:01:33;102634.28;;;0.99;100.00
32033;BME280;31720;52.638;9.216;2023-01-28T05:04:36;102642.94;;;1.00;100.00
32033;BME280;31720;52.638;9.216;2023-01-28T05:07:37;102637.72;;;0.97;100.00
32033;BME280;31720;52.638;9.216;2023-01-28T05:10:39;102638.50;;;0.93;100.00
32033;BME280;31720;52.638;9.216;2023-01-28T05:13:40;102643.63;;;0.90;100.00
32033;BME280;31720;52.638;9.216;2023-01-28T05:16:41;102650.44;;;0.85;100.00
32033;BME280;31720;52.638;9.216;2023-01-28T05:19:44;102639.22;;;0.86;100.00
32033;BME280;31720;52.638;9.216;2023-01-28T05:22:46;102638.34;;;0.84;100.00
32033;BME280;31720;52.638;9.216;2023-01-28T05:25:47;102639.22;;;0.84;100.00
32033;BME280;31720;52.638;9.216;2023-01-28T05:28:48;102638.38;;;0.85;100.00
32033;BME280;31720;52.638;9.216;2023-01-28T05:31:50;102635.84;;;0.88;100.00
32033;BME280;31720;52.638;9.216;2023-01-28T05:34:53;102638.50;;;0.93;100.00
32033;BME280;31720;52.638;9.216;2023-01-28T05:37:54;102628.09;;;0.90;100.00
32033;BME280;31720;52.638;9.216;2023-01-28T05:40:55;102625.47;;;0.88;100.00
32033;BME280;31720;52.638;9.216;2023-01-28T05:43:57;102634.91;;;0.85;100.00
32033;BME280;31720;52.638;9.216;2023-01-28T05:46:58;102631.50;;;0.87;100.00
32033;BME280;31720;52.638;9.216;2023-01-28T05:50:01;102632.38;;;0.88;100.00
32033;BME280;31720;52.638;9.216;2023-01-28T05:53:04;102642.75;;;0.91;100.00
32033;BME280;31720;52.638;9.216;2023-01-28T05:56:06;102641.91;;;0.90;100.00
32033;BME280;31720;52.638;9.216;2023-01-28T05:59:10;102647.03;;;0.87;100.00
32033;BME280;31720;52.638;9.216;2023-01-28T06:02:12;102644.38;;;0.83;100.00
32033;BME280;31720;52.638;9.216;2023-01-28T06:05:15;102633.03;;;0.76;100.00
32033;BME280;31720;52.638;9.216;2023-01-28T06:08:16;102626.19;;;0.80;100.00
32033;BME280;31720;52.638;9.216;2023-01-28T06:11:17;102621.88;;;0.80;100.00
32033;BME280;31720;52.638;9.216;2023-01-28T06:14:19;102615.00;;;0.81;100.00
32033;BME280;31720;52.638;9.216;2023-01-28T06:17:20;102616.69;;;0.79;100.00
32033;BME280;31720;52.638;9.216;2023-01-28T06:20:23;102615.81;;;0.78;100.00
32033;BME280;31720;52.638;9.216;2023-01-28T06:23:24;102614.97;;;0.78;100.00
32033;BME280;31720;52.638;9.216;2023-01-28T06:26:26;102621.88;;;0.80;100.00
32033;BME280;31720;52.638;9.216;2023-01-28T06:29:27;102622.75;;;0.81;100.00
32033;BME280;31720;52.638;9.216;2023-01-28T06:32:28;102627.94;;;0.81;100.00
32033;BME280;31720;52.638;9.216;2023-01-28T06:35:31;102630.50;;;0.79;100.00
32033;BME280;31720;52.638;9.216;2023-01-28T06:38:33;102640.03;;;0.82;100.00
32033;BME280;31720;52.638;9.216;2023-01-28T06:41:34;102645.19;;;0.82;100.00
32033;BME280;31720;52.638;9.216;2023-01-28T06:44:35;102652.16;;;0.84;100.00
32033;BME280;31720;52.638;9.216;2023-01-28T06:47:37;102646.00;;;0.78;100.00
32033;BME280;31720;52.638;9.216;2023-01-28T06:50:40;102644.25;;;0.76;100.00
32033;BME280;31720;52.638;9.216;2023-01-28T06:53:41;102639.91;;;0.75;100.00
32033;BME280;31720;52.638;9.216;2023-01-28T06:56:43;102640.63;;;0.67;100.00
32033;BME280;31720;52.638;9.216;2023-01-28T06:59:44;102640.53;;;0.61;100.00
32033;BME280;31720;52.638;9.216;2023-01-28T07:02:45;102641.38;;;0.60;100.00
32033;BME280;31720;52.638;9.216;2023-01-28T07:05:48;102636.38;;;0.69;100.00
32033;BME280;31720;52.638;9.216;2023-01-28T07:08:49;102633.78;;;0.70;100.00
32033;BME280;31720;52.638;9.216;2023-01-28T07:11:51;102646.63;;;0.64;100.00
32033;BME280;31720;52.638;9.216;2023-01-28T07:14:52;102656.13;;;0.64;100.00
32033;BME280;31720;52.638;9.216;2023-01-28T07:17:53;102651.81;;;0.66;100.00
32033;BME280;31720;52.638;9.216;2023-01-28T07:20:56;102649.25;;;0.66;100.00
32033;BME280;31720;52.638;9.216;2023-01-28T07:23:58;102640.69;;;0.68;100.00
32033;BME280;31720;52.638;9.216;2023-01-28T07:26:59;102633.72;;;0.66;100.00
32033;BME280;31720;52.638;9.216;2023-01-28T07:30:01;102641.56;;;0.72;100.00
32033;BME280;31720;52.638;9.216;2023-01-28T07:33:02;102645.84;;;0.68;100.00
32033;BME280;31720;52.638;9.216;2023-01-28T07:36:06;102646.72;;;0.70;100.00
32033;BME280;31720;52.638;9.216;2023-01-28T07:39:07;102654.50;;;0.70;100.00
32033;BME280;31720;52.638;9.216;2023-01-28T07:42:09;102656.19;;;0.68;100.00
32033;BME280;31720;52.638;9.216;2023-01-28T07:45:10;102652.63;;;0.62;100.00
32033;BME280;31720;52.638;9.216;2023-01-28T07:48:12;102663.72;;;0.55;99.52
32033;BME280;31720;52.638;9.216;2023-01-28T07:51:15;102672.25;;;0.52;99.41
32033;BME280;31720;52.638;9.216;2023-01-28T07:54:16;102681.59;;;0.45;97.99
32033;BME280;31720;52.638;9.216;2023-01-28T07:57:17;102673.97;;;0.52;99.95
32033;BME280;31720;52.638;9.216;2023-01-28T08:00:23;102684.34;;;0.53;100.00
32033;BME280;31720;52.638;9.216;2023-01-28T08:03:25;102693.94;;;0.59;100.00
32033;BME280;31720;52.638;9.216;2023-01-28T08:06:28;102699.16;;;0.60;100.00
32033;BME280;31720;52.638;9.216;2023-01-28T08:09:30;102712.88;;;0.56;100.00
32033;BME280;31720;52.638;9.216;2023-01-28T08:12:33;102709.53;;;0.62;100.00
32033;BME280;31720;52.638;9.216;2023-01-28T08:15:34;102707.84;;;0.64;100.00
32033;BME280;31720;52.638;9.216;2023-01-28T08:18:36;102707.03;;;0.68;100.00
32033;BME280;31720;52.638;9.216;2023-01-28T08:21:38;102709.47;;;0.59;98.64
32033;BME280;31720;52.638;9.216;2023-01-28T08:24:40;102712.78;;;0.52;97.54
32033;BME280;31720;52.638;9.216;2023-01-28T08:27:41;102710.13;;;0.48;100.00
32033;BME280;31720;52.638;9.216;2023-01-28T08:30:43;102723.09;;;0.50;100.00
32033;BME280;31720;52.638;9.216;2023-01-28T08:33:44;102734.44;;;0.57;98.75
32033;BME280;31720;52.638;9.216;2023-01-28T08:36:47;102743.91;;;0.55;99.25
32033;BME280;31720;52.638;9.216;2023-01-28T08:39:48;102743.84;;;0.53;100.00
32033;BME280;31720;52.638;9.216;2023-01-28T08:42:51;102754.97;;;0.49;98.14
32033;BME280;31720;52.638;9.216;2023-01-28T08:45:52;102750.53;;;0.42;99.29
32033;BME280;31720;52.638;9.216;2023-01-28T08:48:53;102758.09;;;0.33;98.59
32033;BME280;31720;52.638;9.216;2023-01-28T08:51:56;102740.09;;;0.39;100.00
32033;BME280;31720;52.638;9.216;2023-01-28T08:54:57;102757.44;;;0.43;100.00
32033;BME280;31720;52.638;9.216;2023-01-28T08:58:01;102761.91;;;0.50;100.00
32033;BME280;31720;52.638;9.216;2023-01-28T09:01:03;102768.75;;;0.48;99.17
32033;BME280;31720;52.638;9.216;2023-01-28T09:04:05;102751.44;;;0.45;100.00
32033;BME280;31720;52.638;9.216;2023-01-28T09:07:08;102759.34;;;0.52;100.00
32033;BME280;31720;52.638;9.216;2023-01-28T09:10:10;102758.59;;;0.57;100.00
32033;BME280;31720;52.638;9.216;2023-01-28T09:13:13;102754.94;;;0.47;100.00
32033;BME280;31720;52.638;9.216;2023-01-28T09:16:14;102764.59;;;0.56;99.82
32033;BME280;31720;52.638;9.216;2023-01-28T09:19:16;102767.13;;;0.53;99.73
32033;BME280;31720;52.638;9.216;2023-01-28T09:22:18;102771.44;;;0.53;100.00
32033;BME280;31720;52.638;9.216;2023-01-28T09:25:20;102789.75;;;0.63;100.00
32033;BME280;31720;52.638;9.216;2023-01-28T09:28:21;102795.78;;;0.62;100.00
32033;BME280;31720;52.638;9.216;2023-01-28T09:31:22;102780.91;;;0.52;100.00
32033;BME280;31720;52.638;9.216;2023-01-28T09:34:25;102782.59;;;0.50;100.00
32033;BME280;31720;52.638;9.216;2023-01-28T09:37:27;102773.25;;;0.57;99.04
32033;BME280;31720;52.638;9.216;2023-01-28T09:40:34;102778.34;;;0.54;100.00
32033;BME280;31720;52.638;9.216;2023-01-28T09:43:52;102778.50;;;0.60;100.00
32033;BME280;31720;52.638;9.216;2023-01-28T09:47:00;102778.19;;;0.46;100.00
32033;BME280;31720;52.638;9.216;2023-01-28T09:50:07;102765.31;;;0.49;98.47
32033;BME280;31720;52.638;9.216;2023-01-28T09:53:16;102776.53;;;0.49;99.93
32033;BME280;31720;52.638;9.216;2023-01-28T09:56:24;102775.03;;;0.59;100.00
32033;BME280;31720;52.638;9.216;2023-01-28T09:59:33;102775.94;;;0.63;99.71
32033;BME280;31720;52.638;9.216;2023-01-28T10:02:46;102778.09;;;0.41;98.80
32033;BME280;31720;52.638;9.216;2023-01-28T10:05:58;102802.50;;;0.54;98.09
32033;BME280;31720;52.638;9.216;2023-01-28T10:09:18;102815.31;;;0.48;98.70
32033;BME280;31720;52.638;9.216;2023-01-28T10:16:18;102813.00;;;0.60;100.00
32033;BME280;31720;52.638;9.216;2023-01-28T10:19:24;102817.50;;;0.69;98.73
32033;BME280;31720;52.638;9.216;2023-01-28T10:22:29;102813.13;;;0.68;99.35
32033;BME280;31720;52.638;9.216;2023-01-28T10:25:33;102811.34;;;0.64;97.92
32033;BME280;31720;52.638;9.216;2023-01-28T10:28:35;102807.72;;;0.56;97.64
32033;BME280;31720;52.638;9.216;2023-01-28T10:31:42;102806.88;;;0.57;100.00
32033;BME280;31720;52.638;9.216;2023-01-28T10:34:44;102799.41;;;0.70;100.00
32033;BME280;31720;52.638;9.216;2023-01-28T10:37:46;102794.41;;;0.80;99.94
32033;BME280;31720;52.638;9.216;2023-01-28T10:40:49;102790.84;;;0.73;98.65
32033;BME280;31720;52.638;9.216;2023-01-28T10:43:51;102786.63;;;0.78;96.72
32033;BME280;31720;52.638;9.216;2023-01-28T10:46:54;102776.91;;;0.68;98.79
32033;BME280;31720;52.638;9.216;2023-01-28T10:49:58;102771.78;;;0.69;98.25
32033;BME280;31720;52.638;9.216;2023-01-28T10:53:03;102766.47;;;0.63;96.69
32033;BME280;31720;52.638;9.216;2023-01-28T10:56:08;102769.97;;;0.65;98.27
32033;BME280;31720;52.638;9.216;2023-01-28T10:59:19;102754.72;;;0.81;95.82
32033;BME280;31720;52.638;9.216;2023-01-28T11:02:28;102753.00;;;0.81;94.52
32033;BME280;31720;52.638;9.216;2023-01-28T11:05:31;102751.47;;;0.91;98.18
32033;BME280;31720;52.638;9.216;2023-01-28T11:08:42;102755.34;;;1.13;100.00
32033;BME280;31720;52.638;9.216;2023-01-28T11:11:45;102759.94;;;1.29;100.00
32033;BME280;31720;52.638;9.216;2023-01-28T11:14:49;102754.16;;;1.44;97.56
32033;BME280;31720;52.638;9.216;2023-01-28T11:17:55;102735.78;;;1.29;95.53
32033;BME280;31720;52.638;9.216;2023-01-28T11:20:59;102734.06;;;1.29;96.22
32033;BME280;31720;52.638;9.216;2023-01-28T11:24:02;102734.22;;;1.38;97.47
32033;BME280;31720;52.638;9.216;2023-01-28T11:27:14;102735.25;;;1.49;98.24
32033;BME280;31720;52.638;9.216;2023-01-28T11:30:21;102729.16;;;1.46;95.25
32033;BME280;31720;52.638;9.216;2023-01-28T11:33:30;102735.25;;;1.49;98.02
32033;BME280;31720;52.638;9.216;2023-01-28T11:36:33;102719.38;;;1.28;100.00
32033;BME280;31720;52.638;9.216;2023-01-28T11:39:35;102707.44;;;1.39;100.00
32033;BME280;31720;52.638;9.216;2023-01-28T11:42:37;102692.91;;;1.47;100.00
32033;BME280;31720;52.638;9.216;2023-01-28T11:45:43;102684.31;;;1.50;100.00
32033;BME280;31720;52.638;9.216;2023-01-28T11:48:51;102683.47;;;1.51;100.00
32033;BME280;31720;52.638;9.216;2023-01-28T11:52:01;102660.91;;;1.44;99.95
32033;BME280;31720;52.638;9.216;2023-01-28T11:55:20;102644.66;;;1.56;100.00
32033;BME280;31720;52.638;9.216;2023-01-28T11:58:32;102637.84;;;1.61;100.00
32033;BME280;31720;52.638;9.216;2023-01-28T12:01:40;102643.16;;;1.71;100.00
32033;BME280;31720;52.638;9.216;2023-01-28T12:04:59;102642.22;;;1.65;99.06
32033;BME280;31720;52.638;9.216;2023-01-28T12:08:10;102630.19;;;1.71;100.00
32033;BME280;31720;52.638;9.216;2023-01-28T12:11:26;102637.28;;;1.83;100.00
32033;BME280;31720;52.638;9.216;2023-01-28T12:15:00;102625.06;;;1.76;100.00
32033;BME280;31720;52.638;9.216;2023-01-28T12:18:12;102629.72;;;2.00;100.00
32033;BME280;31720;52.638;9.216;2023-01-28T12:21:25;102628.22;;;2.22;100.00
32033;BME280;31720;52.638;9.216;2023-01-28T12:24:49;102629.91;;;2.15;98.66
32033;BME280;31720;52.638;9.216;2023-01-28T12:28:02;102608.88;;;1.92;98.50
32033;BME280;31720;52.638;9.216;2023-01-28T12:31:21;102589.81;;;1.89;100.00
32033;BME280;31720;52.638;9.216;2023-01-28T12:34:37;102595.75;;;1.78;100.00
32033;BME280;31720;52.638;9.216;2023-01-28T12:37:56;102605.88;;;1.62;99.96
32033;BME280;31720;52.638;9.216;2023-01-28T12:41:02;102615.56;;;1.75;98.51
32033;BME280;31720;52.638;9.216;2023-01-28T12:44:09;102620.09;;;1.91;96.44
32033;BME280;31720;52.638;9.216;2023-01-28T12:47:16;102616.59;;;1.88;97.50
32033;BME280;31720;52.638;9.216;2023-01-28T12:50:24;102633.16;;;1.99;97.30
32033;BME280;31720;52.638;9.216;2023-01-28T12:53:32;102632.31;;;2.00;97.90
32033;BME280;31720;52.638;9.216;2023-01-28T12:56:41;102640.97;;;2.00;97.63
32033;BME280;31720;52.638;9.216;2023-01-28T12:59:47;102635.91;;;2.11;95.87
32033;BME280;31720;52.638;9.216;2023-01-28T13:02:56;102639.47;;;2.19;96.44
32033;BME280;31720;52.638;9.216;2023-01-28T13:06:05;102633.38;;;2.17;96.93
32033;BME280;31720;52.638;9.216;2023-01-28T13:09:14;102639.31;;;2.07;97.93
32033;BME280;31720;52.638;9.216;2023-01-28T13:12:17;102644.31;;;1.93;97.80
32033;BME280;31720;52.638;9.216;2023-01-28T13:15:21;102640.81;;;1.90;97.02
32033;BME280;31720;52.638;9.216;2023-01-28T13:18:42;102641.59;;;1.83;100.00
32033;BME280;31720;52.638;9.216;2023-01-28T13:21:45;102645.97;;;1.88;99.14
32033;BME280;31720;52.638;9.216;2023-01-28T13:24:47;102639.88;;;1.86;100.00
32033;BME280;31720;52.638;9.216;2023-01-28T13:27:56;102639.00;;;1.84;100.00
32033;BME280;31720;52.638;9.216;2023-01-28T13:31:03;102637.97;;;1.71;99.80
32033;BME280;31720;52.638;9.216;2023-01-28T13:34:07;102632.78;;;1.70;100.00
32033;BME280;31720;52.638;9.216;2023-01-28T13:37:18;102615.56;;;1.75;100.00
32033;BME280;31720;52.638;9.216;2023-01-28T13:40:26;102601.81;;;1.81;100.00
32033;BME280;31720;52.638;9.216;2023-01-28T13:43:35;102583.75;;;1.87;100.00
32033;BME280;31720;52.638;9.216;2023-01-28T13:46:37;102591.53;;;1.88;100.00
32033;BME280;31720;52.638;9.216;2023-01-28T13:49:41;102581.97;;;1.84;100.00
32033;BME280;31720;52.638;9.216;2023-01-28T13:52:48;102580.31;;;1.88;100.00
32033;BME280;31720;52.638;9.216;2023-01-28T13:55:54;102571.78;;;1.99;100.00
32033;BME280;31720;52.638;9.216;2023-01-28T13:59:19;102567.47;;;1.98;100.00
32033;BME280;31720;52.638;9.216;2023-01-28T14:02:39;102565.69;;;1.93;100.00
32033;BME280;31720;52.638;9.216;2023-01-28T14:06:26;102563.84;;;1.86;100.00
32033;BME280;31720;52.638;9.216;2023-01-28T14:10:09;102567.13;;;1.71;100.00
32033;BME280;31720;52.638;9.216;2023-01-28T14:13:42;102587.97;;;1.78;100.00
32033;BME280;31720;52.638;9.216;2023-01-28T14:16:54;102583.59;;;1.74;100.00
32033;BME280;31720;52.638;9.216;2023-01-28T14:19:57;102579.28;;;1.75;100.00
32033;BME280;31720;52.638;9.216;2023-01-28T14:23:02;102595.69;;;1.75;100.00
32033;BME280;31720;52.638;9.216;2023-01-28T14:26:15;102615.63;;;1.81;100.00
32033;BME280;31720;52.638;9.216;2023-01-28T14:29:26;102625.19;;;1.84;100.00
32033;BME280;31720;52.638;9.216;2023-01-28T14:32:32;102630.25;;;1.76;100.00
32033;BME280;31720;52.638;9.216;2023-01-28T14:35:34;102637.16;;;1.75;100.00
32033;BME280;31720;52.638;9.216;2023-01-28T14:38:42;102650.19;;;1.78;100.00
32033;BME280;31720;52.638;9.216;2023-01-28T14:41:46;102644.03;;;1.72;100.00
32033;BME280;31720;52.638;9.216;2023-01-28T14:44:55;102642.94;;;1.55;100.00
32033;BME280;31720;52.638;9.216;2023-01-28T14:48:13;102639.44;;;1.51;100.00
32033;BME280;31720;52.638;9.216;2023-01-28T14:51:34;102648.91;;;1.50;100.00
32033;BME280;31720;52.638;9.216;2023-01-28T14:54:48;102642.09;;;1.59;100.00
32033;BME280;31720;52.638;9.216;2023-01-28T14:57:54;102653.38;;;1.61;100.00
32033;BME280;31720;52.638;9.216;2023-01-28T15:00:58;102656.84;;;1.63;100.00
32033;BME280;31720;52.638;9.216;2023-01-28T15:04:00;102652.50;;;1.60;100.00
32033;BME280;31720;52.638;9.216;2023-01-28T15:07:15;102648.28;;;1.67;100.00
32033;BME280;31720;52.638;9.216;2023-01-28T15:10:20;102649.97;;;1.65;100.00
32033;BME280;31720;52.638;9.216;2023-01-28T15:13:27;102647.41;;;1.66;100.00
32033;BME280;31720;52.638;9.216;2023-01-28T15:16:29;102636.22;;;1.70;100.00
32033;BME280;31720;52.638;9.216;2023-01-28T15:19:33;102625.78;;;1.64;100.00
32033;BME280;31720;52.638;9.216;2023-01-28T15:22:36;102619.81;;;1.71;100.00
32033;BME280;31720;52.638;9.216;2023-01-28T15:25:40;102620.81;;;1.80;100.00
32033;BME280;31720;52.638;9.216;2023-01-28T15:28:42;102625.88;;;1.72;100.00
32033;BME280;31720;52.638;9.216;2023-01-28T15:31:47;102640.53;;;1.68;100.00
32033;BME280;31720;52.638;9.216;2023-01-28T15:34:48;102644.75;;;1.63;100.00
32033;BME280;31720;52.638;9.216;2023-01-28T15:37:50;102650.72;;;1.58;100.00
32033;BME280;31720;52.638;9.216;2023-01-28T15:40:55;102655.91;;;1.58;100.00
32033;BME280;31720;52.638;9.216;2023-01-28T15:43:58;102659.28;;;1.50;100.00
32033;BME280;31720;52.638;9.216;2023-01-28T15:47:01;102653.16;;;1.45;100.00
32033;BME280;31720;52.638;9.216;2023-01-28T15:50:05;102662.63;;;1.43;100.00
32033;BME280;31720;52.638;9.216;2023-01-28T15:53:08;102662.63;;;1.43;100.00
32033;BME280;31720;52.638;9.216;2023-01-28T15:56:13;102678.28;;;1.52;100.00
32033;BME280;31720;52.638;9.216;2023-01-28T15:59:24;102681.63;;;1.44;100.00
32033;BME280;31720;52.638;9.216;2023-01-28T16:02:27;102681.75;;;1.51;100.00
32033;BME280;31720;52.638;9.216;2023-01-28T16:05:31;102673.84;;;1.44;100.00
32033;BME280;31720;52.638;9.216;2023-01-28T16:08:38;102667.78;;;1.43;100.00
32033;BME280;31720;52.638;9.216;2023-01-28T16:11:42;102647.00;;;1.40;100.00
32033;BME280;31720;52.638;9.216;2023-01-28T16:14:48;102640.97;;;1.38;100.00
32033;BME280;31720;52.638;9.216;2023-01-28T16:17:51;102631.47;;;1.40;100.00
32033;BME280;31720;52.638;9.216;2023-01-28T16:20:52;102635.78;;;1.38;100.00
32033;BME280;31720;52.638;9.216;2023-01-28T16:23:59;102636.66;;;1.39;100.00